Time;durP1;ratioP1;P1;durP2;ratioP2;P2;SDS_P1;SDS_P2;PMS_P1;PMS_P2;Temp;Humidity;BMP_temperature;BMP_pressure;BME280_temperature;BME280_humidity;BME280_pressure;Samples;Min_cycle;Max_cycle;Signal;HPM_P1;HPM_P2
2022/12/21 00:00:51;;;;;;;45.55;15.32;;;-0.70;99.90;;;;;;4940948;29;20027;-71
2022/12/21 00:03:17;;;;;;;41.60;14.30;;;-0.70;99.90;;;;;;4957774;29;20111;-71
2022/12/21 00:05:43;;;;;;;36.85;13.93;;;-0.60;99.90;;;;;;4957463;29;20026;-71
2022/12/21 00:08:08;;;;;;;36.35;13.82;;;-0.70;99.90;;;;;;4957200;29;20051;-72
2022/12/21 00:10:34;;;;;;;39.28;15.13;;;-0.70;99.90;;;;;;4957657;29;20019;-71
2022/12/21 00:13:00;;;;;;;40.28;15.23;;;-0.70;99.90;;;;;;4940077;29;20059;-71
2022/12/21 00:15:25;;;;;;;42.03;14.93;;;-0.70;99.90;;;;;;4957467;29;20027;-71
2022/12/21 00:17:51;;;;;;;48.92;15.85;;;-0.80;99.90;;;;;;4957074;29;20030;-71
2022/12/21 00:20:17;;;;;;;44.53;15.15;;;-0.80;99.90;;;;;;4957241;29;20035;-71
2022/12/21 00:22:43;;;;;;;51.55;17.65;;;-0.80;99.90;;;;;;4939846;29;20114;-71
2022/12/21 00:25:09;;;;;;;46.85;15.60;;;-0.80;99.90;;;;;;4959363;29;20031;-71
2022/12/21 00:27:34;;;;;;;40.03;15.48;;;-0.80;99.90;;;;;;4960906;29;20034;-72
2022/12/21 00:30:00;;;;;;;41.10;15.18;;;-0.80;99.90;;;;;;4960390;28;20408;-71
2022/12/21 00:32:26;;;;;;;40.03;15.00;;;-0.80;99.90;;;;;;4940362;29;20367;-71
2022/12/21 00:34:52;;;;;;;45.60;16.05;;;-0.80;99.90;;;;;;4956810;29;20395;-72
2022/12/21 00:37:18;;;;;;;45.38;14.82;;;-0.80;99.90;;;;;;4956595;29;20118;-71
2022/12/21 00:39:43;;;;;;;44.55;15.27;;;-0.80;99.90;;;;;;4957141;29;20031;-71
2022/12/21 00:42:09;;;;;;;55.75;17.95;;;-0.80;99.90;;;;;;4939583;29;20019;-71
2022/12/21 00:44:35;;;;;;;44.47;15.80;;;-0.80;99.90;;;;;;4956762;29;20023;-71
2022/12/21 00:47:00;;;;;;;43.42;15.75;;;-0.80;99.90;;;;;;4939391;29;20030;-71
2022/12/21 00:49:26;;;;;;;45.83;17.15;;;-0.80;99.90;;;;;;4939490;29;20078;-71
2022/12/21 00:51:51;;;;;;;45.38;16.27;;;-0.80;99.90;;;;;;4939337;29;20038;-71
2022/12/21 00:54:17;;;;;;;43.28;16.23;;;-0.60;99.90;;;;;;4939398;29;20030;-71
2022/12/21 00:56:43;;;;;;;49.38;17.10;;;-0.70;99.90;;;;;;4956175;29;20027;-71
2022/12/21 00:59:09;;;;;;;45.50;16.60;;;-0.70;99.90;;;;;;4939224;29;20038;-72
2022/12/21 01:01:35;;;;;;;43.25;17.13;;;-0.50;99.90;;;;;;4955196;29;20023;-71
2022/12/21 01:04:01;;;;;;;47.15;17.02;;;-0.80;99.90;;;;;;4956195;29;20074;-71
2022/12/21 01:06:36;;;;;;;45.85;17.38;;;-0.80;99.90;;;;;;4956408;29;20023;-71
2022/12/21 01:09:07;;;;;;;42.95;15.23;;;-0.80;99.90;;;;;;4954879;29;20047;-71
2022/12/21 01:11:33;;;;;;;49.22;16.92;;;-0.80;99.90;;;;;;4956316;29;20023;-71
2022/12/21 01:13:59;;;;;;;42.95;16.98;;;-0.80;99.90;;;;;;4939041;29;20543;-72
2022/12/21 01:16:27;;;;;;;50.53;16.98;;;-0.80;99.90;;;;;;4939051;29;20030;-71
2022/12/21 01:18:53;;;;;;;47.80;17.05;;;-0.70;99.90;;;;;;4939067;29;20376;-71
2022/12/21 01:21:22;;;;;;;44.78;17.35;;;-0.70;99.90;;;;;;4955934;29;20024;-71
2022/12/21 01:23:48;;;;;;;;;;;-0.50;99.90;;;;;;4956244;29;20019;-71
2022/12/21 01:26:14;;;;;;;44.45;16.60;;;-0.70;99.90;;;;;;4956108;29;19972;-71
2022/12/21 01:28:40;;;;;;;46.53;15.88;;;-0.70;99.90;;;;;;4956036;29;20027;-72
2022/12/21 01:31:06;;;;;;;44.97;17.63;;;-0.70;99.90;;;;;;4956129;29;20338;-71
2022/12/21 01:33:32;;;;;;;44.20;16.02;;;-0.70;99.90;;;;;;4955966;29;20019;-71
2022/12/21 01:36:05;;;;;;;47.20;15.77;;;-0.60;99.90;;;;;;4938795;29;20051;-72
2022/12/21 01:38:30;;;;;;;40.75;15.57;;;-0.70;99.90;;;;;;4955974;29;20106;-71
2022/12/21 01:40:56;;;;;;;47.97;17.65;;;-0.80;99.90;;;;;;4939291;29;20127;-72
2022/12/21 01:43:41;;;;;;;44.55;15.85;;;-0.70;99.90;;;;;;4938535;29;20431;-71
2022/12/21 01:46:11;;;;;;;37.05;15.63;;;-0.70;99.90;;;;;;4955775;29;20176;-71
2022/12/21 01:48:47;;;;;;;43.55;15.55;;;-0.70;99.90;;;;;;4955971;29;20027;-71
2022/12/21 01:51:15;;;;;;;36.13;15.00;;;-0.70;99.90;;;;;;4938848;29;20368;-71
2022/12/21 01:54:09;;;;;;;42.05;14.35;;;-0.70;99.90;;;;;;4955955;29;20432;-72
2022/12/21 01:56:37;;;;;;;34.60;14.02;;;-0.80;99.90;;;;;;4929491;29;20468;-72
2022/12/21 01:59:28;;;;;;;43.60;15.32;;;-0.70;99.90;;;;;;4955788;29;20110;-72
2022/12/21 02:01:54;;;;;;;35.60;14.98;;;-0.70;99.90;;;;;;4938752;29;20023;-71
2022/12/21 02:04:20;;;;;;;35.45;14.45;;;-0.70;99.90;;;;;;4955474;29;20456;-71
2022/12/21 02:06:56;;;;;;;35.17;14.52;;;-0.30;99.90;;;;;;4955820;29;20027;-71
2022/12/21 02:09:23;;;;;;;41.33;14.35;;;-0.80;99.90;;;;;;4956279;29;20052;-72
2022/12/21 02:11:52;;;;;;;35.95;13.90;;;-0.80;99.90;;;;;;4958256;29;20078;-71
2022/12/21 02:14:18;;;;;;;36.35;13.88;;;-0.70;99.90;;;;;;4957804;29;20030;-72
2022/12/21 02:17:05;;;;;;;41.67;15.68;;;-0.70;99.90;;;;;;4939830;29;20041;-72
2022/12/21 02:19:59;;;;;;;40.10;15.20;;;-0.70;99.90;;;;;;4954598;29;20031;-71
2022/12/21 02:22:55;;;;;;;39.78;14.43;;;-0.70;99.90;;;;;;4939053;29;20058;-71
2022/12/21 02:25:52;;;;;;;35.55;14.85;;;-0.70;99.90;;;;;;4955267;29;20122;-71
2022/12/21 02:28:18;;;;;;;38.70;14.93;;;-0.80;99.90;;;;;;4955608;29;20086;-71
2022/12/21 02:31:05;;;;;;;42.85;15.90;;;-0.80;99.90;;;;;;4938316;29;20027;-71
2022/12/21 02:33:42;;;;;;;45.53;15.88;;;-0.80;99.90;;;;;;4938614;29;20027;-71
2022/12/21 02:36:14;;;;;;;45.35;16.55;;;-0.80;99.90;;;;;;4955714;29;20141;-71
2022/12/21 02:39:09;;;;;;;41.47;16.05;;;-0.80;99.90;;;;;;4938482;29;20086;-71
2022/12/21 02:42:02;;;;;;;39.78;14.95;;;-0.80;99.90;;;;;;4955532;29;20036;-71
2022/12/21 02:44:40;;;;;;;42.97;14.82;;;-0.80;99.90;;;;;;4954554;29;20479;-71
2022/12/21 02:47:37;;;;;;;36.03;14.90;;;-0.80;99.90;;;;;;4938081;29;20027;-71
2022/12/21 02:50:11;;;;;;;40.45;15.55;;;-0.80;99.90;;;;;;4938908;29;20136;-71
2022/12/21 02:52:51;;;;;;;41.90;16.25;;;-0.70;99.90;;;;;;4954464;29;20023;-71
2022/12/21 02:55:17;;;;;;;39.70;14.63;;;-0.70;99.90;;;;;;4958749;29;20033;-71
2022/12/21 02:57:44;;;;;;;36.38;15.10;;;-0.60;99.90;;;;;;4958998;29;20027;-71
2022/12/21 03:00:17;;;;;;;44.70;16.60;;;-0.60;99.90;;;;;;4958391;29;20082;-71
2022/12/21 03:06:14;;;;;;;39.42;14.73;;;-0.70;99.90;;;;;;4958345;29;20139;-72
2022/12/21 03:09:09;;;;;;;41.92;14.80;;;-0.70;99.90;;;;;;4941304;29;20391;-71
2022/12/21 03:11:48;;;;;;;42.03;14.05;;;-0.70;99.90;;;;;;4942970;29;20023;-71
2022/12/21 03:14:38;;;;;;;39.53;15.48;;;-0.70;99.90;;;;;;4942969;29;20372;-71
2022/12/21 03:17:30;;;;;;;40.70;14.98;;;-0.70;99.90;;;;;;4959515;29;20024;-72
2022/12/21 03:20:14;;;;;;;44.35;14.80;;;-0.70;99.90;;;;;;4958920;29;20031;-71
2022/12/21 03:22:50;;;;;;;43.25;15.65;;;-0.80;99.90;;;;;;4941116;29;20027;-71
2022/12/21 03:25:27;;;;;;;42.60;15.55;;;-0.80;99.90;;;;;;4957097;29;20459;-72
2022/12/21 03:27:57;;;;;;;46.38;16.88;;;-0.70;99.90;;;;;;4941480;29;20023;-71
2022/12/21 03:30:25;;;;;;;43.03;15.35;;;-0.70;99.90;;;;;;4958150;29;20019;-71
2022/12/21 03:33:03;;;;;;;42.85;16.77;;;-0.80;99.90;;;;;;4957062;29;20027;-71
2022/12/21 03:36:02;;;;;;;40.53;15.30;;;-0.70;99.90;;;;;;4940858;29;20027;-71
2022/12/21 03:38:35;;;;;;;40.22;16.15;;;-0.80;99.90;;;;;;4957556;29;20103;-71
2022/12/21 03:41:05;;;;;;;43.05;15.98;;;-0.70;99.90;;;;;;4956862;29;20031;-71
2022/12/21 03:43:34;;;;;;;41.60;14.75;;;-0.80;99.90;;;;;;4956661;29;20362;-71
2022/12/21 03:46:05;;;;;;;37.42;13.57;;;-0.80;99.90;;;;;;4957499;29;20027;-71
2022/12/21 03:48:52;;;;;;;45.40;16.58;;;-0.80;99.90;;;;;;4940607;29;20455;-71
2022/12/21 03:51:34;;;;;;;36.17;14.15;;;-0.80;99.90;;;;;;4957743;29;20023;-71
2022/12/21 03:54:13;;;;;;;38.03;14.82;;;-0.80;99.90;;;;;;4957926;29;20026;-71
2022/12/21 03:56:40;;;;;;;37.83;14.45;;;-0.80;99.90;;;;;;4956768;29;20121;-71
2022/12/21 03:59:09;;;;;;;41.13;13.98;;;-0.80;99.90;;;;;;4957388;29;20031;-71
2022/12/21 04:01:46;;;;;;;42.40;15.98;;;-0.80;99.90;;;;;;4957602;29;20053;-72
2022/12/21 04:04:29;;;;;;;41.78;16.00;;;-0.80;99.90;;;;;;4957792;29;20106;-71
2022/12/21 04:06:58;;;;;;;41.90;14.88;;;-0.80;99.90;;;;;;4955773;29;20038;-71
2022/12/21 04:09:23;;;;;;;;;;;-0.80;99.90;;;;;;4955929;29;20106;-71
2022/12/21 04:14:33;;;;;;;43.25;16.90;;;-0.50;99.90;;;;;;4956372;29;20082;-71
2022/12/21 04:16:59;;;;;;;43.38;17.50;;;-0.80;99.90;;;;;;4956257;29;20035;-71
2022/12/21 04:28:06;;;;;;;45.95;16.58;;;-0.40;99.90;;;;;;4956373;29;20420;-71
2022/12/21 04:28:08;;;;;;;40.25;14.93;;;-0.80;99.90;;;;;;4887508;29;20407;-71
2022/12/21 04:30:43;;;;;;;48.92;17.73;;;-0.70;99.90;;;;;;4939260;29;20023;-71
2022/12/21 04:33:11;;;;;;;51.85;16.75;;;-0.70;99.90;;;;;;4955908;29;20376;-71
2022/12/21 04:37:30;;;;;;;47.97;16.08;;;-0.80;99.90;;;;;;4938708;29;20028;-71
2022/12/21 04:38:25;;;;;;;48.58;17.92;;;-0.70;99.90;;;;;;4955775;29;20472;-72
2022/12/21 04:40:53;;;;;;;39.70;16.00;;;-0.70;99.90;;;;;;4956254;29;20106;-71
2022/12/21 04:43:19;;;;;;;47.97;15.53;;;-0.70;99.90;;;;;;4939003;29;20031;-71
2022/12/21 04:45:44;;;;;;;49.10;16.45;;;-0.70;99.90;;;;;;4956065;29;20020;-72
2022/12/21 04:48:10;;;;;;;46.65;17.08;;;-0.70;99.90;;;;;;4938762;29;20038;-71
2022/12/21 04:50:38;;;;;;;44.50;17.27;;;-0.70;99.90;;;;;;4938494;29;20030;-72
2022/12/21 04:53:04;;;;;;;51.78;15.75;;;-0.70;99.90;;;;;;4956307;29;20030;-72
2022/12/21 04:55:29;;;;;;;45.20;16.15;;;-0.70;99.90;;;;;;4943438;29;20110;-72
2022/12/21 04:57:55;;;;;;;50.63;16.58;;;-0.70;99.90;;;;;;4961728;29;20031;-72
2022/12/21 05:00:21;;;;;;;38.65;15.18;;;-0.70;99.90;;;;;;4941474;29;20104;-72
2022/12/21 05:02:46;;;;;;;43.17;15.30;;;-0.70;99.90;;;;;;4939554;29;20058;-72
2022/12/21 05:05:12;;;;;;;50.75;16.60;;;-0.70;99.90;;;;;;4956727;29;20038;-71
2022/12/21 05:07:38;;;;;;;47.73;17.13;;;-0.70;99.90;;;;;;4900747;29;1119739;-72
2022/12/21 05:10:04;;;;;;;38.25;14.75;;;-0.60;99.90;;;;;;4944641;29;20031;-71
2022/12/21 05:12:29;;;;;;;37.53;14.20;;;-0.60;99.90;;;;;;4943483;29;20029;-72
2022/12/21 05:14:55;;;;;;;41.08;14.07;;;-0.60;99.90;;;;;;4941088;29;20348;-67
2022/12/21 05:17:20;;;;;;;41.95;14.82;;;-0.60;99.90;;;;;;4955726;28;20094;-67
2022/12/21 05:19:46;;;;;;;37.35;15.10;;;-0.70;99.90;;;;;;4939138;29;20070;-68
2022/12/21 05:22:16;;;;;;;40.90;14.32;;;-0.60;99.90;;;;;;4938943;29;20467;-68
2022/12/21 05:24:43;;;;;;;38.08;14.13;;;-0.40;99.90;;;;;;4956117;29;20023;-68
2022/12/21 05:27:09;;;;;;;39.65;14.93;;;-0.60;99.90;;;;;;4956145;29;20070;-67
2022/12/21 05:29:35;;;;;;;39.58;14.40;;;-0.60;99.90;;;;;;4956107;29;20091;-67
2022/12/21 05:32:00;;;;;;;35.95;13.77;;;-0.50;99.90;;;;;;4956290;29;20364;-67
2022/12/21 05:34:26;;;;;;;33.08;12.90;;;-0.60;99.90;;;;;;4956257;29;20043;-67
2022/12/21 05:36:52;;;;;;;34.85;13.25;;;-0.60;99.90;;;;;;4955813;29;20078;-67
2022/12/21 05:39:17;;;;;;;38.42;14.75;;;-0.60;99.90;;;;;;4956164;29;20031;-68
2022/12/21 05:41:43;;;;;;;48.03;12.90;;;-0.60;99.90;;;;;;4938388;29;20451;-68
2022/12/21 05:44:09;;;;;;;40.85;13.98;;;-0.70;99.90;;;;;;4938879;29;20038;-68
2022/12/21 05:46:35;;;;;;;38.90;13.63;;;-0.70;99.90;;;;;;4955761;29;20030;-68
2022/12/21 05:49:01;;;;;;;32.63;12.65;;;-0.70;99.90;;;;;;4955621;29;20031;-68
2022/12/21 05:51:27;;;;;;;35.00;13.30;;;-0.70;99.90;;;;;;4955541;29;20452;-68
2022/12/21 05:53:53;;;;;;;39.90;13.38;;;-0.50;99.90;;;;;;4955662;29;20023;-68
2022/12/21 05:56:19;;;;;;;40.88;14.60;;;-0.70;99.90;;;;;;4955604;29;20028;-67
2022/12/21 05:58:45;;;;;;;46.50;15.18;;;-0.60;99.90;;;;;;4956039;29;20114;-66
2022/12/21 06:01:12;;;;;;;39.28;13.68;;;-0.60;99.90;;;;;;4939141;29;20023;-67
2022/12/21 06:03:39;;;;;;;34.05;13.23;;;-0.60;99.90;;;;;;4955747;29;20019;-67
2022/12/21 06:06:11;;;;;;;37.85;13.25;;;-0.60;99.90;;;;;;4954283;29;20034;-66
2022/12/21 06:08:37;;;;;;;31.30;12.10;;;-0.60;99.90;;;;;;4955454;29;20122;-67
2022/12/21 06:11:14;;;;;;;35.53;13.45;;;-0.60;99.90;;;;;;4954343;29;20137;-66
2022/12/21 06:13:40;;;;;;;36.67;12.88;;;-0.60;99.90;;;;;;4955711;28;20034;-66
2022/12/21 06:16:11;;;;;;;42.67;15.13;;;-0.70;99.90;;;;;;4938654;29;20070;-65
2022/12/21 06:18:37;;;;;;;36.85;14.25;;;-0.70;99.90;;;;;;4955554;28;20043;-66
2022/12/21 06:21:04;;;;;;;42.22;15.13;;;-0.70;99.90;;;;;;4955807;29;20102;-65
2022/12/21 06:23:30;;;;;;;36.63;14.68;;;-0.70;99.90;;;;;;4955428;29;20047;-66
2022/12/21 06:25:57;;;;;;;38.60;14.95;;;-0.70;99.90;;;;;;4938193;29;20452;-66
2022/12/21 06:28:24;;;;;;;40.25;14.38;;;-0.70;99.90;;;;;;4956185;28;20031;-66
2022/12/21 06:30:51;;;;;;;41.22;14.57;;;-0.60;99.90;;;;;;4959089;29;20031;-66
2022/12/21 06:33:18;;;;;;;38.22;13.88;;;-0.60;99.90;;;;;;4959083;29;20054;-64
2022/12/21 06:35:44;;;;;;;46.17;15.25;;;-0.60;99.90;;;;;;4959704;29;20020;-57
2022/12/21 06:38:10;;;;;;;41.47;14.63;;;-0.60;99.90;;;;;;4941429;29;20102;-66
2022/12/21 06:40:35;;;;;;;38.05;14.15;;;-0.60;99.90;;;;;;4958923;29;20031;-66
2022/12/21 06:43:01;;;;;;;43.63;15.80;;;-0.70;99.90;;;;;;4941782;29;20027;-66
2022/12/21 06:45:27;;;;;;;42.38;16.35;;;-0.70;99.90;;;;;;4958678;29;20023;-59
2022/12/21 06:47:53;;;;;;;42.60;16.88;;;-0.70;99.90;;;;;;4958938;29;20023;-62
2022/12/21 06:50:20;;;;;;;47.65;16.52;;;-0.60;99.90;;;;;;4958846;29;20023;-68
2022/12/21 06:52:47;;;;;;;46.70;17.65;;;-0.50;99.90;;;;;;4959012;29;20138;-68
2022/12/21 06:55:13;;;;;;;42.10;15.40;;;-0.60;99.90;;;;;;4958693;29;20355;-68
2022/12/21 06:57:39;;;;;;;43.92;16.25;;;-0.60;99.90;;;;;;4941381;29;20130;-71
2022/12/21 07:00:05;;;;;;;48.35;18.20;;;-0.60;99.90;;;;;;4958839;29;20034;-68
2022/12/21 07:02:31;;;;;;;44.97;14.95;;;-0.70;99.90;;;;;;4957377;29;20023;-68
2022/12/21 07:04:57;;;;;;;50.22;16.92;;;-0.70;99.90;;;;;;4941321;29;20067;-68
2022/12/21 07:07:23;;;;;;;45.38;16.27;;;-0.70;99.90;;;;;;4940974;29;20027;-68
2022/12/21 07:09:49;;;;;;;45.30;15.90;;;-0.70;99.90;;;;;;4941186;29;20061;-68
2022/12/21 07:12:15;;;;;;;50.88;16.52;;;-0.60;99.90;;;;;;4957434;29;20137;-68
2022/12/21 07:14:40;;;;;;;46.75;16.42;;;-0.60;99.90;;;;;;4941463;29;20034;-68
2022/12/21 07:17:06;;;;;;;47.05;15.80;;;-0.60;99.90;;;;;;4958319;29;20484;-69
2022/12/21 07:19:32;;;;;;;45.08;15.98;;;-0.60;99.90;;;;;;4959145;29;20046;-68
2022/12/21 07:21:57;;;;;;;47.53;17.45;;;-0.60;99.90;;;;;;4941882;29;20114;-68
2022/12/21 07:24:23;;;;;;;46.85;16.45;;;-0.60;99.90;;;;;;4940949;29;20027;-68
2022/12/21 07:26:48;;;;;;;50.17;15.80;;;-0.60;99.90;;;;;;4941093;29;20030;-68
2022/12/21 07:29:14;;;;;;;49.60;16.25;;;-0.50;99.90;;;;;;4958053;29;20027;-68
2022/12/21 07:31:40;;;;;;;43.88;16.33;;;-0.50;99.90;;;;;;4941167;29;20023;-68
2022/12/21 07:34:06;;;;;;;42.67;15.07;;;-0.50;99.90;;;;;;4958459;29;20019;-68
2022/12/21 07:36:31;;;;;;;48.47;16.33;;;-0.50;99.90;;;;;;4941231;29;20029;-68
2022/12/21 07:38:57;;;;;;;43.85;15.35;;;-0.50;99.90;;;;;;4941185;29;20489;-68
2022/12/21 07:41:22;;;;;;;47.42;14.95;;;-0.60;99.90;;;;;;4956881;28;20420;-68
2022/12/21 07:43:49;;;;;;;48.28;15.85;;;-0.60;99.90;;;;;;4941059;29;20431;-68
2022/12/21 07:46:16;;;;;;;45.00;14.90;;;-0.60;99.90;;;;;;4957844;29;20510;-69
2022/12/21 07:48:42;;;;;;;46.15;16.60;;;-0.60;99.90;;;;;;4958833;29;20029;-69
2022/12/21 07:51:08;;;;;;;47.25;14.77;;;-0.50;99.90;;;;;;4957385;29;20023;-67
2022/12/21 07:53:34;;;;;;;50.20;15.63;;;-0.50;99.90;;;;;;4959213;29;20046;-69
2022/12/21 07:56:02;;;;;;;39.97;13.80;;;-0.50;99.90;;;;;;4960973;29;20066;-76
2022/12/21 07:58:28;;;;;;;45.03;15.63;;;-0.60;99.90;;;;;;4959108;29;20379;-75
2022/12/21 08:00:54;;;;;;;45.83;15.88;;;-0.60;99.90;;;;;;4941917;29;20259;-75
2022/12/21 08:03:20;;;;;;;48.22;14.90;;;-0.60;99.90;;;;;;4959318;29;20031;-77
2022/12/21 08:05:45;;;;;;;41.55;14.75;;;-0.50;99.90;;;;;;4943016;29;20105;-76
2022/12/21 08:08:11;;;;;;;45.75;15.77;;;-0.50;99.90;;;;;;4937997;29;20050;-76
2022/12/21 08:10:37;;;;;;;45.35;15.95;;;-0.60;99.90;;;;;;4939158;29;20027;-75
2022/12/21 08:13:02;;;;;;;48.60;16.17;;;-0.50;99.90;;;;;;4937671;29;20019;-74
2022/12/21 08:15:28;;;;;;;50.58;15.75;;;-0.50;99.90;;;;;;4938374;29;20083;-74
2022/12/21 08:17:54;;;;;;;46.25;15.15;;;-0.50;99.90;;;;;;4938712;29;20479;-74
2022/12/21 08:20:20;;;;;;;46.55;15.57;;;-0.40;99.90;;;;;;4939168;29;20031;-74
2022/12/21 08:22:46;;;;;;;43.88;14.73;;;-0.50;99.90;;;;;;4939123;29;20028;-73
2022/12/21 08:25:12;;;;;;;49.58;16.88;;;-0.50;99.90;;;;;;4937101;29;20024;-73
2022/12/21 08:27:37;;;;;;;48.47;17.48;;;-0.50;99.90;;;;;;4923383;29;20032;-73
2022/12/21 08:30:04;;;;;;;45.95;15.02;;;-0.40;99.90;;;;;;4924398;29;20039;-73
2022/12/21 08:32:30;;;;;;;44.53;15.48;;;-0.40;99.90;;;;;;4957367;28;20106;-73
2022/12/21 08:34:56;;;;;;;48.22;15.57;;;-0.40;99.90;;;;;;4956856;29;20035;-73
2022/12/21 08:37:22;;;;;;;43.13;15.18;;;-0.30;99.90;;;;;;4956547;29;20468;-73
2022/12/21 08:39:48;;;;;;;41.95;13.65;;;-0.30;99.90;;;;;;4958556;28;20047;-73
2022/12/21 08:42:14;;;;;;;43.50;14.65;;;-0.20;99.90;;;;;;4956770;29;20031;-74
2022/12/21 08:44:39;;;;;;;38.05;14.63;;;0.00;99.90;;;;;;4957793;29;20456;-74
2022/12/21 08:47:06;;;;;;;38.13;14.27;;;-0.30;99.90;;;;;;4958547;29;20480;-73
2022/12/21 08:49:32;;;;;;;37.95;13.88;;;-0.20;99.90;;;;;;4959005;28;20387;-73
2022/12/21 08:51:58;;;;;;;39.53;13.82;;;-0.20;99.90;;;;;;4960363;28;20027;-73
2022/12/21 08:54:25;;;;;;;36.90;13.05;;;-0.20;99.90;;;;;;4960136;29;20039;-73
2022/12/21 08:56:50;;;;;;;33.83;12.88;;;-0.20;99.90;;;;;;4959634;29;20030;-74
2022/12/21 08:59:16;;;;;;;31.85;12.13;;;-0.20;99.90;;;;;;4942995;29;20032;-73
2022/12/21 09:01:42;;;;;;;38.28;11.77;;;-0.20;99.90;;;;;;4939944;29;20481;-73
2022/12/21 09:04:07;;;;;;;31.40;11.43;;;-0.20;99.90;;;;;;4937061;29;20031;-73
2022/12/21 09:06:33;;;;;;;35.30;11.65;;;-0.20;99.90;;;;;;4939282;29;20052;-73
2022/12/21 09:08:59;;;;;;;33.65;12.32;;;-0.20;99.90;;;;;;4951276;29;20125;-73
2022/12/21 09:11:24;;;;;;;40.42;11.90;;;-0.10;99.90;;;;;;4941818;29;20035;-76
2022/12/21 09:13:50;;;;;;;27.40;11.38;;;-0.10;99.90;;;;;;4939574;29;20058;-72
2022/12/21 09:16:17;;;;;;;31.77;11.68;;;-0.10;99.90;;;;;;4957072;29;20031;-71
2022/12/21 09:18:43;;;;;;;34.20;12.63;;;-0.10;99.90;;;;;;4939220;29;20031;-71
2022/12/21 09:21:10;;;;;;;27.65;11.10;;;-0.10;99.90;;;;;;4958163;29;20037;-72
2022/12/21 09:23:36;;;;;;;33.05;12.52;;;-0.10;99.90;;;;;;4956784;29;20024;-72
2022/12/21 09:26:05;;;;;;;33.00;11.60;;;-0.10;99.90;;;;;;4957204;29;20486;-72
2022/12/21 09:28:30;;;;;;;31.98;11.80;;;-0.10;99.90;;;;;;4942412;29;20394;-72
2022/12/21 09:31:04;;;;;;;29.83;11.48;;;0.00;99.90;;;;;;4962479;29;20110;-73
2022/12/21 09:33:30;;;;;;;32.88;12.85;;;0.00;99.90;;;;;;4960382;29;20019;-74
2022/12/21 09:35:56;;;;;;;33.60;12.48;;;0.10;99.90;;;;;;4959864;29;20033;-73
2022/12/21 09:38:22;;;;;;;33.88;11.70;;;0.10;99.90;;;;;;4942392;29;20031;-73
2022/12/21 09:40:47;;;;;;;33.65;12.93;;;0.10;99.90;;;;;;4944829;29;20027;-72
2022/12/21 09:43:32;;;;;;;31.60;12.32;;;0.10;99.90;;;;;;4963199;29;20032;-73
2022/12/21 09:46:17;;;;;;;29.67;10.77;;;0.20;99.90;;;;;;4944729;29;20023;-73
2022/12/21 09:48:55;;;;;;;30.00;11.50;;;0.20;99.90;;;;;;4940877;29;20053;-73
2022/12/21 09:51:26;;;;;;;29.45;11.88;;;0.10;99.90;;;;;;4956777;29;20468;-73
2022/12/21 09:54:13;;;;;;;28.67;12.10;;;0.00;99.90;;;;;;4926690;29;20059;-73
2022/12/21 09:56:43;;;;;;;33.33;13.10;;;0.00;99.90;;;;;;4939380;29;20099;-73
2022/12/21 09:59:15;;;;;;;34.63;12.20;;;0.00;99.90;;;;;;4920849;29;20038;-72
2022/12/21 10:02:06;;;;;;;30.70;12.32;;;0.00;99.90;;;;;;4924387;29;20034;-73
2022/12/21 10:05:23;;;;;;;31.77;11.30;;;0.10;99.90;;;;;;4942304;29;20035;-72
2022/12/21 10:08:01;;;;;;;28.63;11.07;;;0.10;99.90;;;;;;4909483;29;20048;-72
2022/12/21 10:10:39;;;;;;;32.47;12.60;;;0.20;99.90;;;;;;4927014;29;20100;-72
2022/12/21 10:13:24;;;;;;;28.40;12.43;;;0.30;99.90;;;;;;4927279;29;20032;-72
2022/12/21 10:16:36;;;;;;;33.13;12.40;;;0.40;99.90;;;;;;4944846;29;20056;-72
2022/12/21 10:19:23;;;;;;;25.95;10.90;;;0.40;99.90;;;;;;4842363;29;20106;-72
2022/12/21 10:21:49;;;;;;;27.43;12.00;;;0.40;99.90;;;;;;4942208;29;20110;-73
2022/12/21 10:24:30;;;;;;;28.27;11.98;;;0.40;99.90;;;;;;4924657;29;20059;-72
2022/12/21 10:27:08;;;;;;;29.13;12.77;;;0.40;99.90;;;;;;4924080;29;20082;-73
2022/12/21 10:29:39;;;;;;;35.90;13.25;;;0.30;99.90;;;;;;4941174;29;20413;-73
2022/12/21 10:32:10;;;;;;;30.88;11.98;;;0.30;99.90;;;;;;4924023;29;20534;-73
2022/12/21 10:34:36;;;;;;;33.90;12.27;;;0.40;99.90;;;;;;4925542;29;20444;-73
2022/12/21 10:37:11;;;;;;;31.95;13.45;;;0.40;99.90;;;;;;4941982;29;20432;-72
2022/12/21 10:39:37;;;;;;;34.95;13.65;;;0.50;99.90;;;;;;4942129;29;20034;-73
2022/12/21 10:42:08;;;;;;;34.47;13.75;;;0.50;99.90;;;;;;4942283;29;20111;-72
2022/12/21 10:44:38;;;;;;;31.67;12.90;;;0.60;99.90;;;;;;4941982;29;20027;-73
2022/12/21 10:47:18;;;;;;;35.95;13.63;;;0.60;99.90;;;;;;4942827;29;20078;-72
2022/12/21 10:50:01;;;;;;;37.40;13.93;;;0.60;99.90;;;;;;4940816;29;20064;-73
2022/12/21 10:52:33;;;;;;;37.88;13.60;;;0.40;99.90;;;;;;4939593;29;20540;-73
2022/12/21 10:54:59;;;;;;;40.28;14.55;;;0.30;99.90;;;;;;4939860;29;20038;-73
2022/12/21 10:57:26;;;;;;;36.40;13.90;;;0.20;99.90;;;;;;4939453;29;20384;-73
2022/12/21 10:59:51;;;;;;;40.90;16.13;;;0.20;99.90;;;;;;4941982;29;20027;-73
2022/12/21 11:02:35;;;;;;;44.03;14.43;;;0.30;99.90;;;;;;4924875;29;20027;-72
2022/12/21 11:05:01;;;;;;;40.90;15.40;;;0.30;99.90;;;;;;4941279;29;20024;-72
2022/12/21 11:07:29;;;;;;;45.17;15.75;;;0.40;99.90;;;;;;4942170;29;20031;-73
2022/12/21 11:10:01;;;;;;;42.67;14.52;;;0.50;99.90;;;;;;4941613;29;20050;-73
2022/12/21 11:12:27;;;;;;;45.95;17.98;;;0.50;99.90;;;;;;4942052;29;20027;-72
2022/12/21 11:14:54;;;;;;;41.80;15.68;;;0.60;99.90;;;;;;4924224;29;20031;-72
2022/12/21 11:17:27;;;;;;;38.80;14.30;;;0.60;99.90;;;;;;4924349;29;20047;-72
2022/12/21 11:20:14;;;;;;;45.05;15.90;;;0.70;99.90;;;;;;4941979;29;20083;-73
2022/12/21 11:22:44;;;;;;;37.75;14.82;;;0.80;99.90;;;;;;4941663;29;20024;-73
2022/12/21 11:25:16;;;;;;;42.10;15.82;;;0.80;99.90;;;;;;4923454;29;20061;-72
2022/12/21 11:27:47;;;;;;;63.78;26.02;;;0.80;99.90;;;;;;4923616;29;20036;-72
2022/12/21 11:30:49;;;;;;;35.60;15.18;;;0.80;99.90;;;;;;4941263;29;20034;-72
2022/12/21 11:33:19;;;;;;;45.45;17.98;;;0.80;99.90;;;;;;4907980;29;20043;-73
2022/12/21 11:36:10;;;;;;;44.80;16.30;;;0.80;99.90;;;;;;4924857;29;20464;-73
2022/12/21 11:38:37;;;;;;;44.22;16.13;;;0.80;99.90;;;;;;4942022;29;20445;-73
2022/12/21 11:41:09;;;;;;;37.33;15.38;;;0.80;99.90;;;;;;4942029;29;20024;-73
2022/12/21 11:43:46;;;;;;;42.72;15.40;;;0.80;99.90;;;;;;4939932;29;20468;-73
2022/12/21 11:46:53;;;;;;;39.00;14.73;;;0.70;99.90;;;;;;4923346;29;20106;-73
2022/12/21 11:49:30;;;;;;;35.53;14.90;;;0.80;99.90;;;;;;4897387;29;20468;-73
2022/12/21 11:52:05;;;;;;;39.25;16.00;;;0.90;99.90;;;;;;4923621;29;20042;-73
2022/12/21 11:54:48;;;;;;;46.00;16.00;;;1.00;99.90;;;;;;4924241;29;20428;-73
2022/12/21 11:57:34;;;;;;;38.90;15.82;;;1.10;99.90;;;;;;4923723;29;20456;-73
2022/12/21 12:00:07;;;;;;;37.28;13.73;;;1.20;99.90;;;;;;4923757;29;20024;-73
2022/12/21 12:02:58;;;;;;;42.22;15.27;;;1.20;99.90;;;;;;4923324;29;20035;-73
2022/12/21 12:05:34;;;;;;;40.65;14.68;;;1.30;99.90;;;;;;4924014;29;20032;-73
2022/12/21 12:08:21;;;;;;;37.50;14.40;;;1.30;99.90;;;;;;4944192;29;20383;-73
2022/12/21 12:11:27;;;;;;;41.17;14.13;;;1.20;99.90;;;;;;4943155;29;20041;-73
2022/12/21 12:14:05;;;;;;;37.00;15.00;;;1.30;99.90;;;;;;4943187;29;20055;-73
2022/12/21 12:16:40;;;;;;;34.55;13.63;;;1.30;99.90;;;;;;4943324;29;20372;-73
2022/12/21 12:19:32;;;;;;;35.58;15.18;;;1.30;99.90;;;;;;4960508;29;20057;-73
2022/12/21 12:22:04;;;;;;;38.78;13.77;;;1.30;99.90;;;;;;4955700;29;20050;-73
2022/12/21 12:24:41;;;;;;;37.13;14.18;;;1.30;99.90;;;;;;4959517;29;20487;-72
2022/12/21 12:27:29;;;;;;;40.78;14.43;;;1.30;99.90;;;;;;4941868;29;20375;-72
2022/12/21 12:30:06;;;;;;;39.17;15.32;;;1.20;99.90;;;;;;4960174;29;20162;-73
2022/12/21 12:33:07;;;;;;;35.78;14.95;;;1.20;99.90;;;;;;4960196;29;20058;-73
2022/12/21 12:35:45;;;;;;;34.75;14.13;;;1.10;99.90;;;;;;4942698;29;20049;-72
2022/12/21 12:38:23;;;;;;;39.92;14.88;;;1.10;99.90;;;;;;4942066;29;20120;-72
2022/12/21 12:41:03;;;;;;;38.20;15.23;;;1.10;99.90;;;;;;4959597;29;20425;-72
2022/12/21 12:43:56;;;;;;;39.05;15.55;;;1.00;99.90;;;;;;4942283;29;20114;-72
2022/12/21 12:47:03;;;;;;;38.97;14.50;;;1.00;99.90;;;;;;4942908;29;20030;-73
2022/12/21 12:50:09;;;;;;;36.70;13.68;;;1.00;99.90;;;;;;4847305;29;20574;-73
2022/12/21 12:52:47;;;;;;;38.30;14.75;;;1.00;99.90;;;;;;4846835;29;20033;-73
2022/12/21 12:55:21;;;;;;;40.40;15.20;;;1.10;99.90;;;;;;4862799;29;20069;-72
2022/12/21 12:58:17;;;;;;;35.85;13.80;;;1.10;99.90;;;;;;4863165;29;20055;-72
2022/12/21 13:01:03;;;;;;;36.72;14.50;;;1.10;99.90;;;;;;4862890;29;20566;-72
2022/12/21 13:03:58;;;;;;;30.65;13.98;;;1.10;99.90;;;;;;4861992;29;20037;-73
2022/12/21 13:06:52;;;;;;;37.40;15.10;;;1.20;99.90;;;;;;4862159;29;20086;-70